TimeEDT,TemperatureF,Dew PointF,Humidity,Sea Level PressureIn,VisibilityMPH,Wind Direction,Wind SpeedMPH,Gust SpeedMPH,PrecipitationIn,Events,Conditions,WindDirDegrees,DateUTC
12:14 AM,55.8,50.4,82,29.97,10.0,Calm,Calm,-,N/A,,Clear,0,2013-05-09 04:14:00
12:35 AM,55.0,48.7,79,29.97,10.0,Calm,Calm,-,N/A,,Clear,0,2013-05-09 04:35:00
12:55 AM,54.9,49.1,81,29.97,10.0,NE,4.6,-,N/A,,Clear,40,2013-05-09 04:55:00
1:14 AM,56.1,48.4,75,29.97,10.0,Calm,Calm,-,N/A,,Clear,0,2013-05-09 05:14:00
1:35 AM,53.8,48.7,83,29.96,10.0,Calm,Calm,-,N/A,,Clear,0,2013-05-09 05:35:00
1:55 AM,53.8,48.7,83,29.96,10.0,Calm,Calm,-,N/A,,Clear,0,2013-05-09 05:55:00
2:15 AM,52.9,48.6,85,29.96,10.0,Calm,Calm,-,N/A,,Clear,0,2013-05-09 06:15:00
2:35 AM,50.9,48.7,92,29.96,10.0,Calm,Calm,-,N/A,,Clear,0,2013-05-09 06:35:00
2:55 AM,53.2,49.8,88,29.95,10.0,West,3.5,-,N/A,,Clear,280,2013-05-09 06:55:00
3:15 AM,51.4,47.8,87,29.95,10.0,Calm,Calm,-,N/A,,Clear,0,2013-05-09 07:15:00
3:34 AM,51.6,46.8,83,29.94,10.0,Calm,Calm,-,N/A,,Clear,0,2013-05-09 07:34:00
3:55 AM,50.7,46.4,85,29.94,10.0,Calm,Calm,-,N/A,,Clear,0,2013-05-09 07:55:00
4:15 AM,50.9,45.7,82,29.94,10.0,Calm,Calm,-,N/A,,Clear,0,2013-05-09 08:15:00
4:35 AM,50.0,45.0,83,29.95,10.0,Calm,Calm,-,N/A,,Clear,0,2013-05-09 08:35:00
4:55 AM,49.1,45.5,87,29.95,10.0,Calm,Calm,-,N/A,,Clear,0,2013-05-09 08:55:00
5:15 AM,49.3,45.5,87,29.95,10.0,Calm,Calm,-,N/A,,Clear,0,2013-05-09 09:15:00
5:35 AM,48.6,46.2,92,29.95,10.0,Calm,Calm,-,N/A,,Clear,0,2013-05-09 09:35:00
5:55 AM,47.7,45.5,92,29.95,10.0,Calm,Calm,-,N/A,,Clear,0,2013-05-09 09:55:00
6:15 AM,49.1,46.0,89,29.96,10.0,Calm,Calm,-,N/A,,Clear,0,2013-05-09 10:15:00
6:35 AM,46.8,44.8,93,29.96,10.0,Calm,Calm,-,N/A,,Clear,0,2013-05-09 10:35:00
6:55 AM,47.3,44.4,90,29.96,10.0,Calm,Calm,-,N/A,,Clear,0,2013-05-09 10:55:00
7:15 AM,48.9,46.4,91,29.97,10.0,Calm,Calm,-,N/A,,Clear,0,2013-05-09 11:15:00
7:35 AM,51.1,48.2,90,29.98,10.0,Calm,Calm,-,N/A,,Clear,0,2013-05-09 11:35:00
7:55 AM,53.6,46.8,78,29.97,10.0,Calm,Calm,-,N/A,,Clear,0,2013-05-09 11:55:00
8:14 AM,56.3,43.5,62,29.97,10.0,Calm,Calm,-,N/A,,Clear,0,2013-05-09 12:14:00
8:35 AM,58.1,44.6,61,29.98,10.0,Calm,Calm,-,N/A,,Clear,0,2013-05-09 12:35:00
8:55 AM,60.3,43.5,54,29.98,10.0,Calm,Calm,-,N/A,,Clear,0,2013-05-09 12:55:00
9:14 AM,62.6,40.1,44,29.97,10.0,NW,4.6,-,N/A,,Clear,320,2013-05-09 13:14:00
9:35 AM,64.4,39.6,40,29.97,10.0,West,4.6,-,N/A,,Clear,280,2013-05-09 13:35:00
9:54 AM,65.3,40.3,40,29.97,10.0,NW,3.5,-,N/A,,Clear,310,2013-05-09 13:54:00
10:15 AM,67.6,39.0,35,29.96,10.0,Calm,Calm,-,N/A,,Clear,0,2013-05-09 14:15:00
10:35 AM,70.0,42.6,37,29.97,10.0,Calm,Calm,-,N/A,,Clear,0,2013-05-09 14:35:00
10:55 AM,71.1,42.6,36,29.97,10.0,WNW,3.5,-,N/A,,Clear,290,2013-05-09 14:55:00
11:34 AM,73.6,40.8,31,29.97,10.0,Calm,Calm,-,N/A,,Clear,0,2013-05-09 15:34:00
11:55 AM,75.0,38.7,27,29.96,10.0,Calm,Calm,-,N/A,,Clear,0,2013-05-09 15:55:00
12:15 PM,75.9,39.4,27,29.96,10.0,SSE,4.6,-,N/A,,Clear,150,2013-05-09 16:15:00
12:35 PM,76.5,39.0,26,29.96,10.0,South,3.5,-,N/A,,Clear,190,2013-05-09 16:35:00
1:15 PM,77.0,38.7,25,29.95,10.0,Calm,Calm,-,N/A,,Clear,0,2013-05-09 17:15:00
1:35 PM,76.8,40.1,27,29.95,10.0,WNW,3.5,-,N/A,,Clear,290,2013-05-09 17:35:00
1:55 PM,76.5,39.4,26,29.95,10.0,SSE,4.6,-,N/A,,Clear,160,2013-05-09 17:55:00
2:15 PM,75.9,41.7,29,29.95,10.0,South,8.1,-,N/A,,Scattered Clouds,190,2013-05-09 18:15:00
2:35 PM,76.6,40.8,28,29.94,10.0,SW,8.1,-,N/A,,Scattered Clouds,220,2013-05-09 18:35:00
2:55 PM,78.6,41.2,26,29.93,10.0,SSW,4.6,-,N/A,,Clear,210,2013-05-09 18:55:00
3:15 PM,77.9,39.9,26,29.93,10.0,South,8.1,-,N/A,,Clear,170,2013-05-09 19:15:00
3:34 PM,78.1,39.0,25,29.92,10.0,South,5.8,-,N/A,,Clear,180,2013-05-09 19:34:00
3:55 PM,76.8,37.4,24,29.92,10.0,Calm,Calm,-,N/A,,Scattered Clouds,0,2013-05-09 19:55:00
4:15 PM,77.0,39.0,25,29.91,10.0,Calm,Calm,-,N/A,,Scattered Clouds,0,2013-05-09 20:15:00
4:35 PM,77.2,39.4,26,29.90,10.0,SW,3.5,-,N/A,,Scattered Clouds,230,2013-05-09 20:35:00
4:55 PM,76.8,40.1,27,29.89,10.0,South,5.8,-,N/A,,Clear,190,2013-05-09 20:55:00
5:14 PM,77.0,39.6,26,29.89,10.0,SSW,9.2,-,N/A,,Clear,210,2013-05-09 21:14:00
5:35 PM,75.7,39.7,27,29.89,10.0,West,12.7,-,N/A,,Clear,260,2013-05-09 21:35:00
5:54 PM,72.9,38.5,29,29.90,10.0,West,9.2,-,N/A,,Clear,260,2013-05-09 21:54:00
6:15 PM,71.1,37.8,30,29.90,10.0,West,10.4,-,N/A,,Mostly Cloudy,280,2013-05-09 22:15:00
6:35 PM,70.2,36.9,30,29.91,10.0,West,5.8,-,N/A,,Overcast,270,2013-05-09 22:35:00
6:55 PM,69.1,38.5,33,29.91,10.0,Calm,Calm,-,N/A,,Overcast,0,2013-05-09 22:55:00
7:15 PM,67.8,35.6,30,29.91,10.0,NW,8.1,-,N/A,Rain,Light Rain,320,2013-05-09 23:15:00
7:35 PM,66.7,37.6,34,29.91,10.0,NW,6.9,-,N/A,Rain,Light Rain,310,2013-05-09 23:35:00
7:55 PM,65.5,37.4,35,29.91,10.0,NW,9.2,-,N/A,,Overcast,320,2013-05-09 23:55:00
8:15 PM,64.9,36.5,35,29.91,10.0,NW,6.9,-,N/A,,Overcast,320,2013-05-10 00:15:00
8:35 PM,63.5,37.9,39,29.92,10.0,NW,5.8,-,N/A,,Overcast,310,2013-05-10 00:35:00
8:55 PM,63.3,37.6,39,29.92,10.0,WNW,4.6,-,N/A,,Overcast,300,2013-05-10 00:55:00
9:15 PM,61.9,39.2,43,29.92,10.0,NW,4.6,-,N/A,,Overcast,310,2013-05-10 01:15:00
9:35 PM,61.3,42.3,50,29.93,10.0,West,3.5,-,N/A,Rain,Light Rain,280,2013-05-10 01:35:00
9:55 PM,58.8,45.9,62,29.93,10.0,Calm,Calm,-,N/A,Rain,Rain,0,2013-05-10 01:55:00
10:15 PM,59.9,43.9,55,29.93,10.0,Calm,Calm,-,N/A,,Light Drizzle,0,2013-05-10 02:15:00
10:35 PM,59.4,46.2,62,29.92,10.0,NNW,3.5,-,N/A,,Overcast,330,2013-05-10 02:35:00
10:55 PM,57.6,50.5,77,29.92,10.0,NW,3.5,-,N/A,,Overcast,310,2013-05-10 02:55:00
11:15 PM,57.7,49.5,74,29.91,10.0,NW,3.5,-,N/A,,Light Drizzle,310,2013-05-10 03:15:00
11:55 PM,58.1,49.5,73,29.90,10.0,NNW,5.8,-,N/A,,Overcast,340,2013-05-10 03:55:00